sensor_id;sensor_type;location;lat;lon;timestamp;P1;durP1;ratioP1;P2;durP2;ratioP2
55206;SDS011;41079;52.856;6.534;2022-08-25T00:01:14;813.10;;;287.38;;
55206;SDS011;41079;52.856;6.534;2022-08-25T00:03:42;811.92;;;286.27;;
55206;SDS011;41079;52.856;6.534;2022-08-25T00:06:09;817.80;;;290.40;;
55206;SDS011;41079;52.856;6.534;2022-08-25T00:08:35;813.80;;;287.02;;
55206;SDS011;41079;52.856;6.534;2022-08-25T00:11:09;818.13;;;290.98;;
55206;SDS011;41079;52.856;6.534;2022-08-25T00:13:39;817.78;;;291.25;;
55206;SDS011;41079;52.856;6.534;2022-08-25T00:16:08;812.97;;;287.13;;
55206;SDS011;41079;52.856;6.534;2022-08-25T00:18:35;816.90;;;289.77;;
55206;SDS011;41079;52.856;6.534;2022-08-25T00:21:02;814.20;;;289.95;;
55206;SDS011;41079;52.856;6.534;2022-08-25T00:23:28;815.25;;;288.77;;
55206;SDS011;41079;52.856;6.534;2022-08-25T00:25:54;817.30;;;291.33;;
55206;SDS011;41079;52.856;6.534;2022-08-25T00:28:20;817.15;;;291.98;;
55206;SDS011;41079;52.856;6.534;2022-08-25T00:30:46;815.95;;;290.48;;
55206;SDS011;41079;52.856;6.534;2022-08-25T00:33:11;810.33;;;287.10;;
55206;SDS011;41079;52.856;6.534;2022-08-25T00:35:39;813.72;;;288.48;;
55206;SDS011;41079;52.856;6.534;2022-08-25T00:38:05;806.63;;;283.33;;
55206;SDS011;41079;52.856;6.534;2022-08-25T00:40:30;818.53;;;293.55;;
55206;SDS011;41079;52.856;6.534;2022-08-25T00:42:56;817.05;;;293.30;;
55206;SDS011;41079;52.856;6.534;2022-08-25T00:45:22;811.53;;;287.95;;
55206;SDS011;41079;52.856;6.534;2022-08-25T00:47:47;816.88;;;293.77;;
55206;SDS011;41079;52.856;6.534;2022-08-25T00:50:13;813.60;;;290.30;;
55206;SDS011;41079;52.856;6.534;2022-08-25T00:52:44;815.47;;;292.25;;
55206;SDS011;41079;52.856;6.534;2022-08-25T00:55:27;809.33;;;286.92;;
55206;SDS011;41079;52.856;6.534;2022-08-25T01:00:39;814.78;;;291.95;;
55206;SDS011;41079;52.856;6.534;2022-08-25T01:03:07;812.03;;;289.10;;
55206;SDS011;41079;52.856;6.534;2022-08-25T01:05:33;811.63;;;291.02;;
55206;SDS011;41079;52.856;6.534;2022-08-25T01:08:00;806.03;;;285.27;;
55206;SDS011;41079;52.856;6.534;2022-08-25T01:10:28;811.00;;;290.83;;
55206;SDS011;41079;52.856;6.534;2022-08-25T01:12:57;808.55;;;287.48;;
55206;SDS011;41079;52.856;6.534;2022-08-25T01:15:26;808.85;;;288.58;;
55206;SDS011;41079;52.856;6.534;2022-08-25T01:17:53;807.40;;;287.13;;
55206;SDS011;41079;52.856;6.534;2022-08-25T01:20:22;804.65;;;285.77;;
55206;SDS011;41079;52.856;6.534;2022-08-25T01:22:50;807.47;;;288.60;;
55206;SDS011;41079;52.856;6.534;2022-08-25T01:25:25;808.58;;;289.00;;
55206;SDS011;41079;52.856;6.534;2022-08-25T01:28:10;804.65;;;285.70;;
55206;SDS011;41079;52.856;6.534;2022-08-25T01:30:36;816.00;;;297.48;;
55206;SDS011;41079;52.856;6.534;2022-08-25T01:33:03;806.20;;;288.92;;
55206;SDS011;41079;52.856;6.534;2022-08-25T01:35:30;815.30;;;296.17;;
55206;SDS011;41079;52.856;6.534;2022-08-25T01:37:56;816.25;;;298.40;;
55206;SDS011;41079;52.856;6.534;2022-08-25T01:40:48;810.70;;;293.58;;
55206;SDS011;41079;52.856;6.534;2022-08-25T01:45:40;805.95;;;289.67;;
55206;SDS011;41079;52.856;6.534;2022-08-25T01:48:08;804.55;;;290.00;;
55206;SDS011;41079;52.856;6.534;2022-08-25T01:50:35;804.72;;;287.77;;
55206;SDS011;41079;52.856;6.534;2022-08-25T01:55:39;804.28;;;288.10;;
55206;SDS011;41079;52.856;6.534;2022-08-25T01:58:20;802.88;;;287.42;;
55206;SDS011;41079;52.856;6.534;2022-08-25T02:00:47;812.40;;;296.08;;
55206;SDS011;41079;52.856;6.534;2022-08-25T02:03:14;811.15;;;295.35;;
55206;SDS011;41079;52.856;6.534;2022-08-25T02:05:41;814.33;;;296.33;;
55206;SDS011;41079;52.856;6.534;2022-08-25T02:08:08;808.95;;;293.75;;
55206;SDS011;41079;52.856;6.534;2022-08-25T02:10:33;803.25;;;287.60;;
55206;SDS011;41079;52.856;6.534;2022-08-25T02:12:59;803.40;;;288.02;;
55206;SDS011;41079;52.856;6.534;2022-08-25T02:15:25;813.83;;;299.33;;
55206;SDS011;41079;52.856;6.534;2022-08-25T02:17:51;806.20;;;290.90;;
55206;SDS011;41079;52.856;6.534;2022-08-25T02:20:16;802.90;;;287.90;;
55206;SDS011;41079;52.856;6.534;2022-08-25T02:22:42;812.30;;;297.38;;
55206;SDS011;41079;52.856;6.534;2022-08-25T02:25:08;808.92;;;293.17;;
55206;SDS011;41079;52.856;6.534;2022-08-25T02:27:34;812.33;;;296.25;;
55206;SDS011;41079;52.856;6.534;2022-08-25T02:30:00;807.40;;;291.90;;
55206;SDS011;41079;52.856;6.534;2022-08-25T02:32:28;812.53;;;296.50;;
55206;SDS011;41079;52.856;6.534;2022-08-25T02:34:53;808.40;;;293.42;;
55206;SDS011;41079;52.856;6.534;2022-08-25T02:37:19;805.22;;;289.67;;
55206;SDS011;41079;52.856;6.534;2022-08-25T02:39:45;813.10;;;297.02;;
55206;SDS011;41079;52.856;6.534;2022-08-25T02:42:10;809.65;;;294.63;;
55206;SDS011;41079;52.856;6.534;2022-08-25T02:44:36;813.35;;;297.50;;
55206;SDS011;41079;52.856;6.534;2022-08-25T02:47:02;808.50;;;293.08;;
55206;SDS011;41079;52.856;6.534;2022-08-25T02:49:28;810.92;;;295.20;;
55206;SDS011;41079;52.856;6.534;2022-08-25T02:51:54;812.63;;;297.40;;
55206;SDS011;41079;52.856;6.534;2022-08-25T02:54:20;804.72;;;290.38;;
55206;SDS011;41079;52.856;6.534;2022-08-25T02:56:47;809.38;;;294.27;;
55206;SDS011;41079;52.856;6.534;2022-08-25T02:59:15;809.95;;;295.15;;
55206;SDS011;41079;52.856;6.534;2022-08-25T03:01:42;806.05;;;290.27;;
55206;SDS011;41079;52.856;6.534;2022-08-25T03:04:08;804.25;;;290.30;;
55206;SDS011;41079;52.856;6.534;2022-08-25T03:06:34;809.67;;;294.77;;
55206;SDS011;41079;52.856;6.534;2022-08-25T03:08:59;804.75;;;290.33;;
55206;SDS011;41079;52.856;6.534;2022-08-25T03:11:25;801.38;;;288.33;;
55206;SDS011;41079;52.856;6.534;2022-08-25T03:13:51;802.10;;;288.92;;
55206;SDS011;41079;52.856;6.534;2022-08-25T03:16:18;804.15;;;290.85;;
55206;SDS011;41079;52.856;6.534;2022-08-25T03:18:44;806.03;;;291.67;;
55206;SDS011;41079;52.856;6.534;2022-08-25T03:21:11;804.63;;;291.05;;
55206;SDS011;41079;52.856;6.534;2022-08-25T03:23:38;809.30;;;296.08;;
55206;SDS011;41079;52.856;6.534;2022-08-25T03:26:05;807.55;;;294.92;;
55206;SDS011;41079;52.856;6.534;2022-08-25T03:28:50;802.28;;;291.27;;
55206;SDS011;41079;52.856;6.534;2022-08-25T03:31:16;801.10;;;289.25;;
55206;SDS011;41079;52.856;6.534;2022-08-25T03:33:42;808.65;;;296.05;;
55206;SDS011;41079;52.856;6.534;2022-08-25T03:36:08;812.85;;;299.98;;
55206;SDS011;41079;52.856;6.534;2022-08-25T03:38:35;806.95;;;295.70;;
55206;SDS011;41079;52.856;6.534;2022-08-25T03:41:09;810.63;;;298.75;;
55206;SDS011;41079;52.856;6.534;2022-08-25T03:43:40;804.78;;;292.83;;
55206;SDS011;41079;52.856;6.534;2022-08-25T03:46:06;809.97;;;297.17;;
55206;SDS011;41079;52.856;6.534;2022-08-25T03:48:32;805.83;;;295.40;;
55206;SDS011;41079;52.856;6.534;2022-08-25T03:50:57;806.65;;;295.70;;
55206;SDS011;41079;52.856;6.534;2022-08-25T03:53:23;810.88;;;299.42;;
55206;SDS011;41079;52.856;6.534;2022-08-25T03:55:49;806.53;;;295.02;;
55206;SDS011;41079;52.856;6.534;2022-08-25T03:58:14;800.75;;;291.58;;
55206;SDS011;41079;52.856;6.534;2022-08-25T04:00:42;804.92;;;294.02;;
55206;SDS011;41079;52.856;6.534;2022-08-25T04:03:08;807.17;;;297.63;;
55206;SDS011;41079;52.856;6.534;2022-08-25T04:05:34;801.50;;;292.60;;
55206;SDS011;41079;52.856;6.534;2022-08-25T04:08:00;807.05;;;297.75;;
55206;SDS011;41079;52.856;6.534;2022-08-25T04:10:25;806.85;;;296.45;;
55206;SDS011;41079;52.856;6.534;2022-08-25T04:12:51;805.20;;;296.17;;
55206;SDS011;41079;52.856;6.534;2022-08-25T04:15:17;800.72;;;292.52;;
55206;SDS011;41079;52.856;6.534;2022-08-25T04:17:42;800.00;;;293.15;;
55206;SDS011;41079;52.856;6.534;2022-08-25T04:20:09;801.78;;;293.60;;
55206;SDS011;41079;52.856;6.534;2022-08-25T04:22:35;805.45;;;298.95;;
55206;SDS011;41079;52.856;6.534;2022-08-25T04:25:02;805.13;;;297.67;;
55206;SDS011;41079;52.856;6.534;2022-08-25T04:27:29;806.40;;;298.77;;
55206;SDS011;41079;52.856;6.534;2022-08-25T04:29:54;800.72;;;293.83;;
55206;SDS011;41079;52.856;6.534;2022-08-25T04:32:20;805.67;;;298.13;;
55206;SDS011;41079;52.856;6.534;2022-08-25T04:34:46;805.80;;;299.25;;
55206;SDS011;41079;52.856;6.534;2022-08-25T04:37:13;799.88;;;295.13;;
55206;SDS011;41079;52.856;6.534;2022-08-25T04:39:40;800.80;;;295.75;;
55206;SDS011;41079;52.856;6.534;2022-08-25T04:42:05;807.80;;;302.40;;
55206;SDS011;41079;52.856;6.534;2022-08-25T04:44:31;809.58;;;303.50;;
55206;SDS011;41079;52.856;6.534;2022-08-25T04:46:57;806.13;;;300.90;;
55206;SDS011;41079;52.856;6.534;2022-08-25T04:49:24;804.40;;;298.75;;
55206;SDS011;41079;52.856;6.534;2022-08-25T04:51:50;810.30;;;304.15;;
55206;SDS011;41079;52.856;6.534;2022-08-25T04:54:16;808.03;;;301.58;;
55206;SDS011;41079;52.856;6.534;2022-08-25T04:56:45;806.17;;;299.83;;
55206;SDS011;41079;52.856;6.534;2022-08-25T04:59:13;798.63;;;293.70;;
55206;SDS011;41079;52.856;6.534;2022-08-25T05:01:40;804.20;;;296.60;;
55206;SDS011;41079;52.856;6.534;2022-08-25T05:04:08;807.13;;;298.30;;
55206;SDS011;41079;52.856;6.534;2022-08-25T05:06:35;806.30;;;296.65;;
55206;SDS011;41079;52.856;6.534;2022-08-25T05:09:01;809.78;;;299.00;;
55206;SDS011;41079;52.856;6.534;2022-08-25T05:11:28;808.22;;;295.48;;
55206;SDS011;41079;52.856;6.534;2022-08-25T05:13:54;810.55;;;295.88;;
55206;SDS011;41079;52.856;6.534;2022-08-25T05:16:21;804.28;;;288.98;;
55206;SDS011;41079;52.856;6.534;2022-08-25T05:18:48;810.17;;;291.75;;
55206;SDS011;41079;52.856;6.534;2022-08-25T05:21:17;801.70;;;283.13;;
55206;SDS011;41079;52.856;6.534;2022-08-25T05:23:45;798.88;;;279.33;;
55206;SDS011;41079;52.856;6.534;2022-08-25T05:26:20;805.72;;;284.33;;
55206;SDS011;41079;52.856;6.534;2022-08-25T05:28:50;809.58;;;287.35;;
55206;SDS011;41079;52.856;6.534;2022-08-25T05:31:18;794.80;;;274.25;;
55206;SDS011;41079;52.856;6.534;2022-08-25T05:33:44;815.30;;;291.42;;
55206;SDS011;41079;52.856;6.534;2022-08-25T05:36:11;809.55;;;284.88;;
55206;SDS011;41079;52.856;6.534;2022-08-25T05:38:38;816.47;;;291.27;;
55206;SDS011;41079;52.856;6.534;2022-08-25T05:41:06;814.17;;;288.60;;
55206;SDS011;41079;52.856;6.534;2022-08-25T05:43:35;817.13;;;292.40;;
55206;SDS011;41079;52.856;6.534;2022-08-25T05:46:05;817.25;;;290.75;;
55206;SDS011;41079;52.856;6.534;2022-08-25T05:48:31;814.10;;;288.35;;
55206;SDS011;41079;52.856;6.534;2022-08-25T05:50:57;806.50;;;280.58;;
55206;SDS011;41079;52.856;6.534;2022-08-25T05:53:25;816.38;;;290.42;;
55206;SDS011;41079;52.856;6.534;2022-08-25T05:55:52;813.40;;;287.30;;
55206;SDS011;41079;52.856;6.534;2022-08-25T05:58:20;805.40;;;280.63;;
55206;SDS011;41079;52.856;6.534;2022-08-25T06:00:46;812.10;;;285.00;;
55206;SDS011;41079;52.856;6.534;2022-08-25T06:03:12;818.20;;;291.42;;
55206;SDS011;41079;52.856;6.534;2022-08-25T06:05:38;817.92;;;290.35;;
55206;SDS011;41079;52.856;6.534;2022-08-25T06:08:05;812.90;;;285.05;;
55206;SDS011;41079;52.856;6.534;2022-08-25T06:10:31;808.13;;;281.23;;
55206;SDS011;41079;52.856;6.534;2022-08-25T06:12:56;805.00;;;278.27;;
55206;SDS011;41079;52.856;6.534;2022-08-25T06:15:22;819.65;;;290.50;;
55206;SDS011;41079;52.856;6.534;2022-08-25T06:17:49;819.72;;;290.17;;
55206;SDS011;41079;52.856;6.534;2022-08-25T06:20:23;820.25;;;289.30;;
55206;SDS011;41079;52.856;6.534;2022-08-25T06:22:50;807.28;;;278.02;;
55206;SDS011;41079;52.856;6.534;2022-08-25T06:25:17;812.90;;;282.88;;
55206;SDS011;41079;52.856;6.534;2022-08-25T06:27:45;816.30;;;284.85;;
55206;SDS011;41079;52.856;6.534;2022-08-25T06:30:12;816.78;;;285.50;;
55206;SDS011;41079;52.856;6.534;2022-08-25T06:32:40;822.50;;;290.73;;
55206;SDS011;41079;52.856;6.534;2022-08-25T06:35:07;821.78;;;288.75;;
55206;SDS011;41079;52.856;6.534;2022-08-25T06:37:35;821.88;;;289.15;;
55206;SDS011;41079;52.856;6.534;2022-08-25T06:40:01;824.58;;;291.17;;
55206;SDS011;41079;52.856;6.534;2022-08-25T06:42:28;811.08;;;278.05;;
55206;SDS011;41079;52.856;6.534;2022-08-25T06:44:54;821.65;;;286.83;;
55206;SDS011;41079;52.856;6.534;2022-08-25T06:47:19;818.50;;;283.30;;
55206;SDS011;41079;52.856;6.534;2022-08-25T06:49:45;810.60;;;277.25;;
55206;SDS011;41079;52.856;6.534;2022-08-25T06:52:11;817.22;;;282.98;;
55206;SDS011;41079;52.856;6.534;2022-08-25T06:54:37;825.58;;;290.17;;
55206;SDS011;41079;52.856;6.534;2022-08-25T06:57:04;825.08;;;288.10;;
55206;SDS011;41079;52.856;6.534;2022-08-25T06:59:30;827.35;;;290.23;;
55206;SDS011;41079;52.856;6.534;2022-08-25T07:01:56;827.90;;;290.02;;
55206;SDS011;41079;52.856;6.534;2022-08-25T07:04:23;831.05;;;293.25;;
55206;SDS011;41079;52.856;6.534;2022-08-25T07:06:48;828.83;;;290.63;;
55206;SDS011;41079;52.856;6.534;2022-08-25T07:09:14;829.90;;;290.55;;
55206;SDS011;41079;52.856;6.534;2022-08-25T07:11:40;833.83;;;293.20;;
55206;SDS011;41079;52.856;6.534;2022-08-25T07:14:07;829.60;;;289.70;;
55206;SDS011;41079;52.856;6.534;2022-08-25T07:16:35;831.97;;;290.90;;
55206;SDS011;41079;52.856;6.534;2022-08-25T07:19:01;835.30;;;292.75;;
55206;SDS011;41079;52.856;6.534;2022-08-25T07:21:28;830.38;;;288.20;;
55206;SDS011;41079;52.856;6.534;2022-08-25T07:23:55;829.15;;;287.02;;
55206;SDS011;41079;52.856;6.534;2022-08-25T07:26:24;835.65;;;292.08;;
55206;SDS011;41079;52.856;6.534;2022-08-25T07:28:51;834.28;;;290.15;;
55206;SDS011;41079;52.856;6.534;2022-08-25T07:31:16;835.65;;;291.63;;
55206;SDS011;41079;52.856;6.534;2022-08-25T07:33:42;839.03;;;293.73;;
55206;SDS011;41079;52.856;6.534;2022-08-25T07:36:27;840.40;;;293.88;;
55206;SDS011;41079;52.856;6.534;2022-08-25T07:38:55;839.38;;;292.40;;
55206;SDS011;41079;52.856;6.534;2022-08-25T07:41:20;828.42;;;283.42;;
55206;SDS011;41079;52.856;6.534;2022-08-25T07:43:46;844.03;;;295.25;;
55206;SDS011;41079;52.856;6.534;2022-08-25T07:46:12;838.50;;;290.35;;
55206;SDS011;41079;52.856;6.534;2022-08-25T07:48:38;838.13;;;288.85;;
55206;SDS011;41079;52.856;6.534;2022-08-25T07:51:08;837.50;;;288.63;;
55206;SDS011;41079;52.856;6.534;2022-08-25T07:56:01;844.30;;;295.05;;
55206;SDS011;41079;52.856;6.534;2022-08-25T07:58:26;845.65;;;296.20;;
55206;SDS011;41079;52.856;6.534;2022-08-25T08:00:52;831.55;;;283.30;;
55206;SDS011;41079;52.856;6.534;2022-08-25T08:03:19;840.00;;;289.85;;
55206;SDS011;41079;52.856;6.534;2022-08-25T08:05:45;843.42;;;291.70;;
55206;SDS011;41079;52.856;6.534;2022-08-25T08:08:11;845.88;;;293.30;;
55206;SDS011;41079;52.856;6.534;2022-08-25T08:10:40;846.97;;;294.33;;
55206;SDS011;41079;52.856;6.534;2022-08-25T08:13:07;840.60;;;288.45;;
55206;SDS011;41079;52.856;6.534;2022-08-25T08:15:34;847.72;;;293.65;;
55206;SDS011;41079;52.856;6.534;2022-08-25T08:18:00;840.85;;;287.27;;
55206;SDS011;41079;52.856;6.534;2022-08-25T08:20:27;844.30;;;290.15;;
55206;SDS011;41079;52.856;6.534;2022-08-25T08:22:55;850.75;;;294.75;;
55206;SDS011;41079;52.856;6.534;2022-08-25T08:25:21;850.00;;;293.10;;
55206;SDS011;41079;52.856;6.534;2022-08-25T08:27:47;846.78;;;290.80;;
55206;SDS011;41079;52.856;6.534;2022-08-25T08:30:13;850.17;;;292.90;;
55206;SDS011;41079;52.856;6.534;2022-08-25T08:32:39;848.03;;;291.13;;
55206;SDS011;41079;52.856;6.534;2022-08-25T08:35:04;854.55;;;297.10;;
55206;SDS011;41079;52.856;6.534;2022-08-25T08:37:31;854.42;;;295.80;;
55206;SDS011;41079;52.856;6.534;2022-08-25T08:39:57;853.58;;;294.48;;
55206;SDS011;41079;52.856;6.534;2022-08-25T08:45:23;847.22;;;289.52;;
55206;SDS011;41079;52.856;6.534;2022-08-25T08:50:28;850.95;;;292.38;;
55206;SDS011;41079;52.856;6.534;2022-08-25T08:53:08;854.08;;;294.90;;
55206;SDS011;41079;52.856;6.534;2022-08-25T08:55:45;855.45;;;294.95;;
55206;SDS011;41079;52.856;6.534;2022-08-25T09:00:51;855.35;;;295.20;;
55206;SDS011;41079;52.856;6.534;2022-08-25T09:06:07;855.95;;;294.90;;
55206;SDS011;41079;52.856;6.534;2022-08-25T09:08:44;848.58;;;288.27;;
55206;SDS011;41079;52.856;6.534;2022-08-25T09:17:11;853.53;;;291.95;;
55206;SDS011;41079;52.856;6.534;2022-08-25T09:19:56;846.88;;;284.77;;
55206;SDS011;41079;52.856;6.534;2022-08-25T09:31:11;854.90;;;289.38;;
55206;SDS011;41079;52.856;6.534;2022-08-25T09:33:49;858.08;;;292.85;;
55206;SDS011;41079;52.856;6.534;2022-08-25T09:38:44;861.45;;;294.40;;
55206;SDS011;41079;52.856;6.534;2022-08-25T09:41:10;858.42;;;290.75;;
55206;SDS011;41079;52.856;6.534;2022-08-25T09:43:42;861.58;;;294.08;;
55206;SDS011;41079;52.856;6.534;2022-08-25T09:46:23;861.65;;;293.70;;
55206;SDS011;41079;52.856;6.534;2022-08-25T09:54:01;865.45;;;297.55;;
55206;SDS011;41079;52.856;6.534;2022-08-25T09:56:33;864.45;;;296.58;;
55206;SDS011;41079;52.856;6.534;2022-08-25T09:59:20;860.47;;;292.73;;
55206;SDS011;41079;52.856;6.534;2022-08-25T10:01:52;861.17;;;293.15;;
55206;SDS011;41079;52.856;6.534;2022-08-25T10:04:26;867.75;;;298.30;;
55206;SDS011;41079;52.856;6.534;2022-08-25T10:07:04;863.42;;;294.20;;
55206;SDS011;41079;52.856;6.534;2022-08-25T10:09:53;869.15;;;299.52;;
55206;SDS011;41079;52.856;6.534;2022-08-25T10:12:23;863.53;;;295.10;;
55206;SDS011;41079;52.856;6.534;2022-08-25T10:14:59;864.35;;;294.50;;
55206;SDS011;41079;52.856;6.534;2022-08-25T10:17:48;864.38;;;294.90;;
55206;SDS011;41079;52.856;6.534;2022-08-25T10:20:20;868.13;;;297.20;;
55206;SDS011;41079;52.856;6.534;2022-08-25T10:22:48;865.05;;;295.10;;
55206;SDS011;41079;52.856;6.534;2022-08-25T10:25:26;868.15;;;297.58;;
55206;SDS011;41079;52.856;6.534;2022-08-25T10:30:35;867.25;;;296.45;;
55206;SDS011;41079;52.856;6.534;2022-08-25T10:35:58;865.97;;;295.08;;
55206;SDS011;41079;52.856;6.534;2022-08-25T10:38:35;861.03;;;290.75;;
55206;SDS011;41079;52.856;6.534;2022-08-25T10:49:47;872.13;;;299.65;;
55206;SDS011;41079;52.856;6.534;2022-08-25T10:55:33;871.22;;;298.90;;
55206;SDS011;41079;52.856;6.534;2022-08-25T11:01:07;863.63;;;293.17;;
55206;SDS011;41079;52.856;6.534;2022-08-25T11:03:46;866.47;;;294.45;;
55206;SDS011;41079;52.856;6.534;2022-08-25T11:09:03;872.30;;;298.63;;
55206;SDS011;41079;52.856;6.534;2022-08-25T11:11:36;873.70;;;299.25;;
55206;SDS011;41079;52.856;6.534;2022-08-25T11:14:15;874.33;;;300.52;;
55206;SDS011;41079;52.856;6.534;2022-08-25T11:16:52;870.90;;;297.30;;
55206;SDS011;41079;52.856;6.534;2022-08-25T11:19:42;874.20;;;300.58;;
55206;SDS011;41079;52.856;6.534;2022-08-25T11:25:24;871.85;;;297.33;;
55206;SDS011;41079;52.856;6.534;2022-08-25T11:28:02;868.90;;;295.80;;
55206;SDS011;41079;52.856;6.534;2022-08-25T11:30:34;873.75;;;299.33;;
55206;SDS011;41079;52.856;6.534;2022-08-25T11:33:02;871.03;;;296.58;;
55206;SDS011;41079;52.856;6.534;2022-08-25T11:35:32;874.42;;;299.90;;
55206;SDS011;41079;52.856;6.534;2022-08-25T11:38:12;867.72;;;294.13;;
55206;SDS011;41079;52.856;6.534;2022-08-25T11:41:22;873.85;;;297.90;;
55206;SDS011;41079;52.856;6.534;2022-08-25T11:55:12;866.10;;;292.52;;
55206;SDS011;41079;52.856;6.534;2022-08-25T12:00:45;869.78;;;294.27;;
55206;SDS011;41079;52.856;6.534;2022-08-25T12:08:52;878.60;;;301.02;;
55206;SDS011;41079;52.856;6.534;2022-08-25T12:11:41;878.45;;;300.92;;
55206;SDS011;41079;52.856;6.534;2022-08-25T12:14:34;878.90;;;301.42;;
55206;SDS011;41079;52.856;6.534;2022-08-25T12:17:08;878.95;;;301.92;;
55206;SDS011;41079;52.856;6.534;2022-08-25T12:27:11;873.97;;;298.70;;
55206;SDS011;41079;52.856;6.534;2022-08-25T12:30:03;876.08;;;300.50;;
55206;SDS011;41079;52.856;6.534;2022-08-25T12:38:15;876.38;;;299.73;;
55206;SDS011;41079;52.856;6.534;2022-08-25T12:41:00;877.25;;;300.38;;
55206;SDS011;41079;52.856;6.534;2022-08-25T12:43:28;879.35;;;301.38;;
55206;SDS011;41079;52.856;6.534;2022-08-25T12:49:04;875.13;;;296.80;;
55206;SDS011;41079;52.856;6.534;2022-08-25T12:54:18;873.13;;;295.80;;
55206;SDS011;41079;52.856;6.534;2022-08-25T12:59:48;867.70;;;291.80;;
55206;SDS011;41079;52.856;6.534;2022-08-25T13:16:05;877.65;;;300.40;;
55206;SDS011;41079;52.856;6.534;2022-08-25T13:18:34;875.95;;;299.15;;
55206;SDS011;41079;52.856;6.534;2022-08-25T13:21:07;876.47;;;299.67;;
55206;SDS011;41079;52.856;6.534;2022-08-25T13:23:47;869.85;;;294.30;;
55206;SDS011;41079;52.856;6.534;2022-08-25T13:26:23;864.85;;;289.85;;
55206;SDS011;41079;52.856;6.534;2022-08-25T13:29:14;876.25;;;298.67;;
55206;SDS011;41079;52.856;6.534;2022-08-25T13:34:41;875.38;;;298.58;;
55206;SDS011;41079;52.856;6.534;2022-08-25T13:37:10;877.53;;;300.88;;
55206;SDS011;41079;52.856;6.534;2022-08-25T13:43:01;876.10;;;299.23;;
55206;SDS011;41079;52.856;6.534;2022-08-25T13:45:34;877.20;;;300.80;;
55206;SDS011;41079;52.856;6.534;2022-08-25T13:48:06;864.90;;;290.42;;
55206;SDS011;41079;52.856;6.534;2022-08-25T13:50:33;875.42;;;299.02;;
55206;SDS011;41079;52.856;6.534;2022-08-25T13:55:51;877.95;;;300.80;;
55206;SDS011;41079;52.856;6.534;2022-08-25T13:58:27;871.60;;;294.45;;
55206;SDS011;41079;52.856;6.534;2022-08-25T14:03:33;878.30;;;300.10;;
55206;SDS011;41079;52.856;6.534;2022-08-25T14:06:17;881.38;;;302.17;;
55206;SDS011;41079;52.856;6.534;2022-08-25T14:08:47;868.42;;;290.98;;
55206;SDS011;41079;52.856;6.534;2022-08-25T14:11:33;879.28;;;299.92;;
55206;SDS011;41079;52.856;6.534;2022-08-25T14:14:09;874.63;;;296.25;;
55206;SDS011;41079;52.856;6.534;2022-08-25T14:16:50;876.35;;;298.50;;
55206;SDS011;41079;52.856;6.534;2022-08-25T14:19:20;870.53;;;293.67;;
55206;SDS011;41079;52.856;6.534;2022-08-25T14:21:47;874.63;;;297.60;;
55206;SDS011;41079;52.856;6.534;2022-08-25T14:24:15;878.50;;;301.20;;
55206;SDS011;41079;52.856;6.534;2022-08-25T14:26:42;877.17;;;300.15;;
55206;SDS011;41079;52.856;6.534;2022-08-25T14:29:09;877.30;;;300.42;;
55206;SDS011;41079;52.856;6.534;2022-08-25T14:31:35;876.08;;;298.83;;
55206;SDS011;41079;52.856;6.534;2022-08-25T14:34:05;875.38;;;298.45;;
55206;SDS011;41079;52.856;6.534;2022-08-25T14:39:00;877.88;;;300.40;;
55206;SDS011;41079;52.856;6.534;2022-08-25T14:41:30;877.67;;;300.57;;
55206;SDS011;41079;52.856;6.534;2022-08-25T14:43:58;876.47;;;299.20;;
55206;SDS011;41079;52.856;6.534;2022-08-25T14:46:26;876.65;;;299.38;;
55206;SDS011;41079;52.856;6.534;2022-08-25T14:48:53;873.92;;;297.23;;
55206;SDS011;41079;52.856;6.534;2022-08-25T14:51:23;872.75;;;295.88;;
55206;SDS011;41079;52.856;6.534;2022-08-25T14:53:51;873.53;;;295.83;;
55206;SDS011;41079;52.856;6.534;2022-08-25T14:56:18;867.67;;;291.58;;
55206;SDS011;41079;52.856;6.534;2022-08-25T14:58:43;871.88;;;295.83;;
55206;SDS011;41079;52.856;6.534;2022-08-25T15:01:13;872.75;;;296.08;;
55206;SDS011;41079;52.856;6.534;2022-08-25T15:03:40;872.58;;;294.92;;
55206;SDS011;41079;52.856;6.534;2022-08-25T15:06:10;867.50;;;291.58;;
55206;SDS011;41079;52.856;6.534;2022-08-25T15:08:38;876.22;;;298.13;;
55206;SDS011;41079;52.856;6.534;2022-08-25T15:11:22;869.65;;;292.67;;
55206;SDS011;41079;52.856;6.534;2022-08-25T15:13:48;879.60;;;301.60;;
55206;SDS011;41079;52.856;6.534;2022-08-25T15:16:16;880.50;;;302.13;;
55206;SDS011;41079;52.856;6.534;2022-08-25T15:18:48;869.45;;;292.23;;
55206;SDS011;41079;52.856;6.534;2022-08-25T15:21:14;869.15;;;291.15;;
55206;SDS011;41079;52.856;6.534;2022-08-25T15:23:39;873.22;;;295.15;;
55206;SDS011;41079;52.856;6.534;2022-08-25T15:26:05;867.35;;;290.83;;
55206;SDS011;41079;52.856;6.534;2022-08-25T15:28:34;869.03;;;291.55;;
55206;SDS011;41079;52.856;6.534;2022-08-25T15:31:06;877.33;;;299.80;;
55206;SDS011;41079;52.856;6.534;2022-08-25T15:33:32;873.90;;;296.38;;
55206;SDS011;41079;52.856;6.534;2022-08-25T15:35:57;870.75;;;293.95;;
55206;SDS011;41079;52.856;6.534;2022-08-25T15:38:23;872.60;;;296.42;;
55206;SDS011;41079;52.856;6.534;2022-08-25T15:40:49;873.65;;;297.45;;
55206;SDS011;41079;52.856;6.534;2022-08-25T15:43:14;865.25;;;290.63;;
55206;SDS011;41079;52.856;6.534;2022-08-25T15:45:40;875.40;;;298.98;;
55206;SDS011;41079;52.856;6.534;2022-08-25T15:48:06;877.10;;;300.77;;
55206;SDS011;41079;52.856;6.534;2022-08-25T15:50:31;876.60;;;300.13;;
55206;SDS011;41079;52.856;6.534;2022-08-25T15:52:57;877.28;;;300.50;;
55206;SDS011;41079;52.856;6.534;2022-08-25T15:55:22;867.05;;;291.33;;
55206;SDS011;41079;52.856;6.534;2022-08-25T15:57:48;877.85;;;300.20;;
55206;SDS011;41079;52.856;6.534;2022-08-25T16:00:14;870.90;;;294.35;;
55206;SDS011;41079;52.856;6.534;2022-08-25T16:02:41;864.75;;;290.10;;
55206;SDS011;41079;52.856;6.534;2022-08-25T16:05:07;865.80;;;290.98;;
55206;SDS011;41079;52.856;6.534;2022-08-25T16:07:34;867.58;;;292.58;;
55206;SDS011;41079;52.856;6.534;2022-08-25T16:10:00;864.83;;;290.05;;
55206;SDS011;41079;52.856;6.534;2022-08-25T16:12:26;864.78;;;289.40;;
55206;SDS011;41079;52.856;6.534;2022-08-25T16:14:51;867.13;;;291.70;;
55206;SDS011;41079;52.856;6.534;2022-08-25T16:17:17;870.85;;;295.08;;
55206;SDS011;41079;52.856;6.534;2022-08-25T16:19:44;872.90;;;297.50;;
55206;SDS011;41079;52.856;6.534;2022-08-25T16:22:10;871.78;;;296.13;;
55206;SDS011;41079;52.856;6.534;2022-08-25T16:24:37;875.50;;;299.58;;
55206;SDS011;41079;52.856;6.534;2022-08-25T16:27:05;868.53;;;293.30;;